首页
METAR-TAF:

METAR-TAF

机场 :

昂热, 法国

纬度: 47-33-37N, 经度: 000-18-44W, 海拔: 59米

当前天气观测

该预报发布于22分钟前的02:30 UTC
风速12节,风向东转东北
温度 24°C
湿度 83%
气压 1018 hPa
能见度10公里或以上
1500米以下无云,无积雨云

METAR: LFJR 270230Z AUTO 07012KT CAVOK 24/21 Q1018

时间: 04:52 (02:52 UTC)


TAF: 丢失

超过4000个机场的气象观测和天气预报(METAR&TAF报告)。

可查询的气象台以黄色和红色小点在地图上表示。

将鼠标移到小点上方,可查看气象台名称。

然后点击查看天气观测和预报。

如需切换地图:点击带黑十字的绿色按钮放大地图;点击带横线的绿色按钮缩小地图;或者点击绿色箭头查看邻近地区的地图。


METAR-TAF: